createdAt,value
2023-02-08T00:00:48.660Z,66.65
2023-02-08T00:03:22.419Z,66.79
2023-02-08T00:05:54.209Z,66.43
2023-02-08T00:08:26.004Z,66.55
2023-02-08T00:10:58.065Z,66.81
2023-02-08T00:13:30.129Z,66.95
2023-02-08T00:16:04.014Z,67.18
2023-02-08T00:18:35.709Z,67.15
2023-02-08T00:21:15.990Z,67.07
2023-02-08T00:23:48.172Z,67.10
2023-02-08T00:26:20.042Z,67.10
2023-02-08T00:28:51.985Z,67.33
2023-02-08T00:31:23.813Z,67.05
2023-02-08T00:33:56.640Z,67.50
2023-02-08T00:36:30.557Z,67.54
2023-02-08T00:39:02.854Z,67.29
2023-02-08T00:41:34.563Z,67.48
2023-02-08T00:44:09.011Z,67.32
2023-02-08T00:46:40.714Z,67.45
2023-02-08T00:49:12.510Z,67.42
2023-02-08T00:51:44.175Z,67.24
2023-02-08T00:54:18.787Z,67.38
2023-02-08T00:56:50.472Z,67.13
2023-02-08T00:59:23.827Z,67.22
2023-02-08T01:01:55.538Z,67.17
2023-02-08T01:04:28.436Z,67.46
2023-02-08T01:07:00.125Z,67.54
2023-02-08T01:09:32.738Z,67.43
2023-02-08T01:12:06.457Z,67.64
2023-02-08T01:14:39.454Z,67.85
2023-02-08T01:17:11.202Z,67.81
2023-02-08T01:19:43.433Z,67.84
2023-02-08T01:22:15.155Z,67.88
2023-02-08T01:24:46.850Z,67.64
2023-02-08T01:27:18.523Z,67.85
2023-02-08T01:29:51.428Z,67.91
2023-02-08T01:32:24.979Z,68.41
2023-02-08T01:34:56.672Z,68.85
2023-02-08T01:37:28.347Z,68.84
2023-02-08T01:40:00.030Z,68.37
2023-02-08T01:42:31.688Z,68.55
2023-02-08T01:45:17.642Z,68.16
2023-02-08T01:47:55.136Z,68.07
2023-02-08T01:50:32.455Z,68.36
2023-02-08T01:53:06.191Z,68.24
2023-02-08T01:55:43.077Z,67.95
2023-02-08T01:58:19.396Z,68.00
2023-02-08T02:00:51.216Z,68.00
2023-02-08T02:03:24.923Z,67.80
2023-02-08T02:06:08.218Z,67.90
2023-02-08T02:08:49.522Z,67.85
2023-02-08T02:11:21.435Z,67.90
2023-02-08T02:13:56.367Z,68.00
2023-02-08T02:16:28.124Z,68.05
2023-02-08T02:18:59.792Z,68.08
2023-02-08T02:21:54.808Z,68.09
2023-02-08T02:24:48.212Z,67.85
2023-02-08T02:27:27.614Z,67.80
2023-02-08T02:30:24.533Z,68.17
2023-02-08T02:32:59.264Z,68.44
2023-02-08T02:35:54.506Z,68.48
2023-02-08T02:39:02.933Z,68.26
2023-02-08T02:42:21.419Z,68.72
2023-02-08T02:45:23.884Z,69.05
2023-02-08T02:48:03.502Z,68.80
2023-02-08T02:51:06.140Z,69.57
2023-02-08T02:53:45.045Z,69.56
2023-02-08T02:56:27.226Z,69.79
2023-02-08T02:59:06.462Z,69.81
2023-02-08T03:01:39.641Z,69.49
2023-02-08T03:04:15.702Z,69.39
2023-02-08T03:07:08.886Z,69.05
2023-02-08T03:10:04.860Z,69.00
2023-02-08T03:12:55.294Z,68.92
2023-02-08T03:15:48.336Z,68.65
2023-02-08T03:18:50.465Z,68.53
2023-02-08T03:21:45.880Z,68.64
2023-02-08T03:24:23.450Z,68.98
2023-02-08T03:27:01.440Z,68.94
2023-02-08T03:29:48.092Z,68.76
2023-02-08T03:32:27.146Z,68.82
2023-02-08T03:35:10.980Z,68.66
2023-02-08T03:37:48.208Z,68.44
2023-02-08T03:40:26.983Z,68.32
2023-02-08T03:43:03.519Z,68.47
2023-02-08T03:45:43.448Z,68.65
2023-02-08T03:48:18.446Z,68.33
2023-02-08T03:50:53.678Z,68.27
2023-02-08T03:53:27.568Z,68.76
2023-02-08T03:56:06.020Z,68.98
2023-02-08T03:59:03.901Z,68.71
2023-02-08T04:01:45.101Z,68.83
2023-02-08T04:04:20.905Z,68.94
2023-02-08T04:06:53.207Z,69.80
2023-02-08T04:09:24.913Z,69.97
2023-02-08T04:11:56.671Z,69.49
2023-02-08T04:14:28.353Z,69.58
2023-02-08T04:17:00.214Z,69.30
2023-02-08T04:19:32.258Z,69.61
2023-02-08T04:22:03.932Z,69.69
2023-02-08T04:24:35.548Z,69.47
2023-02-08T04:27:08.296Z,69.27
2023-02-08T04:29:43.987Z,69.00
2023-02-08T04:32:15.707Z,69.35
2023-02-08T04:34:47.441Z,69.00
2023-02-08T04:37:19.326Z,68.82
2023-02-08T04:39:51.367Z,69.47
2023-02-08T04:42:23.113Z,68.81
2023-02-08T04:44:54.792Z,69.38
2023-02-08T04:47:26.468Z,69.27
2023-02-08T04:49:58.211Z,69.26
2023-02-08T04:52:29.921Z,68.84
2023-02-08T04:55:01.585Z,69.10
2023-02-08T04:57:33.310Z,68.92
2023-02-08T05:00:05.619Z,68.78
2023-02-08T05:02:37.333Z,69.16
2023-02-08T05:05:09.072Z,68.79
2023-02-08T05:07:40.768Z,68.87
2023-02-08T05:10:12.663Z,69.08
2023-02-08T05:12:47.248Z,68.68
2023-02-08T05:15:18.932Z,68.62
2023-02-08T05:17:50.651Z,68.62
2023-02-08T05:20:22.366Z,68.91
2023-02-08T05:22:54.089Z,68.76
2023-02-08T05:25:25.922Z,68.99
2023-02-08T05:27:58.811Z,69.12
2023-02-08T05:30:31.476Z,69.26
2023-02-08T05:33:03.205Z,69.19
2023-02-08T05:35:34.858Z,69.60
2023-02-08T05:38:06.984Z,69.78
2023-02-08T05:40:39.011Z,69.27
2023-02-08T05:43:10.852Z,69.41
2023-02-08T05:45:42.541Z,69.53
2023-02-08T05:48:14.362Z,69.58
2023-02-08T05:50:46.109Z,69.74
2023-02-08T05:53:20.283Z,69.34
2023-02-08T05:55:52.132Z,69.53
2023-02-08T05:58:27.106Z,69.99
2023-02-08T06:00:58.850Z,69.96
2023-02-08T06:03:30.572Z,69.46
2023-02-08T06:06:02.282Z,69.50
2023-02-08T06:08:34.107Z,69.58
2023-02-08T06:11:06.392Z,69.67
2023-02-08T06:13:39.288Z,68.79
2023-02-08T06:16:12.699Z,68.96
2023-02-08T06:18:44.387Z,69.10
2023-02-08T06:21:16.076Z,69.49
2023-02-08T06:23:47.773Z,69.46
2023-02-08T06:26:19.500Z,70.27
2023-02-08T06:28:51.237Z,69.68
2023-02-08T06:31:23.014Z,70.12
2023-02-08T06:33:54.742Z,70.01
2023-02-08T06:36:26.452Z,69.91
2023-02-08T06:38:58.133Z,69.97
2023-02-08T06:41:29.798Z,70.07
2023-02-08T06:44:02.290Z,69.83
2023-02-08T06:46:33.999Z,69.36
2023-02-08T06:49:05.747Z,69.55
2023-02-08T06:51:37.464Z,69.37
2023-02-08T06:54:09.155Z,68.74
2023-02-08T06:56:40.913Z,67.86
2023-02-08T06:59:12.608Z,65.92
2023-02-08T07:01:44.252Z,64.33
2023-02-08T07:04:15.943Z,61.05
2023-02-08T07:06:50.751Z,59.69
2023-02-08T07:09:22.803Z,57.47
2023-02-08T07:11:54.455Z,55.13
2023-02-08T07:14:26.161Z,53.69
2023-02-08T07:16:57.867Z,50.28
2023-02-08T07:19:29.844Z,49.97
2023-02-08T07:22:07.238Z,47.09
2023-02-08T07:24:41.415Z,46.20
2023-02-08T07:27:13.567Z,44.24
2023-02-08T07:29:45.229Z,42.94
2023-02-08T07:32:17.063Z,41.11
2023-02-08T07:34:48.761Z,39.46
2023-02-08T07:37:20.436Z,37.70
2023-02-08T07:39:52.097Z,37.00
2023-02-08T07:42:23.796Z,35.64
2023-02-08T07:45:08.148Z,34.93
2023-02-08T07:47:39.877Z,34.88
2023-02-08T07:50:11.614Z,34.29
2023-02-08T07:52:46.075Z,33.80
2023-02-08T07:55:18.036Z,32.89
2023-02-08T07:57:50.338Z,31.70
2023-02-08T08:00:22.050Z,30.76
2023-02-08T08:02:54.320Z,29.81
2023-02-08T08:05:26.056Z,29.08
2023-02-08T08:07:57.729Z,28.34
2023-02-08T08:10:29.412Z,27.54
2023-02-08T08:13:01.175Z,26.88
2023-02-08T08:15:33.297Z,25.68
2023-02-08T08:18:05.107Z,24.57
2023-02-08T08:20:39.685Z,24.42
2023-02-08T08:23:14.494Z,23.88
2023-02-08T08:25:46.134Z,24.12
2023-02-08T08:28:17.955Z,23.44
2023-02-08T08:30:49.891Z,23.67
2023-02-08T08:33:21.641Z,23.36
2023-02-08T08:35:53.444Z,23.66
2023-02-08T08:38:25.303Z,23.75
2023-02-08T08:40:57.091Z,23.51
2023-02-08T08:43:28.817Z,23.03
2023-02-08T08:46:00.651Z,22.52
2023-02-08T08:48:33.914Z,22.28
2023-02-08T08:51:06.647Z,21.63
2023-02-08T08:53:38.848Z,22.05
2023-02-08T08:56:10.590Z,21.80
2023-02-08T08:58:43.473Z,22.77
2023-02-08T09:01:15.398Z,23.12
2023-02-08T09:03:48.343Z,23.90
2023-02-08T09:06:20.139Z,24.64
2023-02-08T09:08:51.952Z,24.91
2023-02-08T09:11:23.672Z,25.34
2023-02-08T09:13:56.331Z,26.05
2023-02-08T09:16:28.227Z,26.44
2023-02-08T09:19:04.686Z,26.47
2023-02-08T09:21:36.748Z,26.07
2023-02-08T09:24:08.899Z,26.30
2023-02-08T09:26:40.732Z,26.28
2023-02-08T09:29:12.448Z,26.44
2023-02-08T09:31:44.385Z,26.54
2023-02-08T09:34:16.228Z,26.54
2023-02-08T09:36:47.931Z,26.69
2023-02-08T09:39:22.815Z,27.02
2023-02-08T09:42:13.274Z,26.55
2023-02-08T09:44:47.956Z,26.82
2023-02-08T09:47:28.925Z,26.48
2023-02-08T09:50:14.227Z,26.59
2023-02-08T09:52:54.960Z,26.62
2023-02-08T09:56:01.830Z,27.17
2023-02-08T09:58:40.304Z,28.96
2023-02-08T10:01:26.352Z,29.82
2023-02-08T10:04:09.010Z,29.93
2023-02-08T10:06:41.333Z,29.53
2023-02-08T10:09:16.350Z,29.83
2023-02-08T10:11:54.669Z,29.03
2023-02-08T10:14:56.034Z,29.34
2023-02-08T10:17:41.638Z,29.56
2023-02-08T10:20:25.318Z,28.67
2023-02-08T10:23:16.022Z,30.00
2023-02-08T10:26:14.435Z,30.17
2023-02-08T10:28:58.104Z,31.66
2023-02-08T10:31:44.019Z,33.28
2023-02-08T10:34:37.221Z,33.02
2023-02-08T10:37:29.427Z,35.59
2023-02-08T10:40:14.789Z,33.83
2023-02-08T10:42:52.659Z,34.86
2023-02-08T10:45:36.724Z,35.60
2023-02-08T10:48:15.939Z,35.22
2023-02-08T10:50:48.237Z,34.69
2023-02-08T10:53:20.581Z,32.79
2023-02-08T10:55:52.705Z,33.92
2023-02-08T10:58:28.324Z,35.21
2023-02-08T11:01:01.253Z,34.16
2023-02-08T11:03:34.242Z,34.23
2023-02-08T11:06:21.892Z,33.71
2023-02-08T11:08:58.812Z,32.86
2023-02-08T11:11:39.307Z,34.54
2023-02-08T11:14:45.506Z,32.57
2023-02-08T11:17:31.360Z,34.11
2023-02-08T11:20:06.267Z,34.18
2023-02-08T11:22:38.011Z,33.82
2023-02-08T11:25:35.932Z,33.80
2023-02-08T11:28:22.761Z,35.37
2023-02-08T11:31:02.876Z,36.19
2023-02-08T11:33:37.200Z,36.96
2023-02-08T11:36:13.554Z,38.13
2023-02-08T11:38:45.244Z,38.21
2023-02-08T11:41:20.475Z,38.65
2023-02-08T11:43:55.078Z,38.37
2023-02-08T11:46:29.426Z,37.68
2023-02-08T11:49:01.572Z,37.31
2023-02-08T11:51:36.360Z,37.36
2023-02-08T11:54:30.801Z,38.58
2023-02-08T11:57:10.994Z,39.28
2023-02-08T11:59:42.719Z,39.76
2023-02-08T12:02:48.408Z,39.99
2023-02-08T12:05:29.528Z,40.58
2023-02-08T12:08:16.160Z,41.19
2023-02-08T12:10:54.842Z,41.35
2023-02-08T12:13:50.442Z,41.87
2023-02-08T12:16:25.740Z,41.32
2023-02-08T12:19:39.373Z,40.53
2023-02-08T12:22:13.148Z,40.76
2023-02-08T12:25:06.305Z,40.52
2023-02-08T12:27:59.464Z,40.63
2023-02-08T12:30:40.639Z,39.90
2023-02-08T12:33:33.576Z,39.11
2023-02-08T12:36:05.733Z,39.57
2023-02-08T12:39:22.349Z,39.56
2023-02-08T12:42:12.502Z,39.69
2023-02-08T12:45:05.675Z,39.67
2023-02-08T12:48:04.683Z,37.22
2023-02-08T12:50:50.935Z,36.53
2023-02-08T12:53:35.911Z,36.34
2023-02-08T12:56:32.856Z,36.70
2023-02-08T12:59:13.467Z,36.15
2023-02-08T13:01:51.358Z,36.47
2023-02-08T13:04:33.096Z,36.79
2023-02-08T13:07:19.732Z,36.81
2023-02-08T13:10:29.488Z,36.96
2023-02-08T13:13:19.968Z,36.96
2023-02-08T13:16:30.121Z,35.81
2023-02-08T13:19:32.441Z,35.50
2023-02-08T13:22:05.748Z,36.08
2023-02-08T13:24:44.892Z,36.25
2023-02-08T13:27:19.400Z,36.71
2023-02-08T13:29:52.917Z,36.91
2023-02-08T13:32:44.307Z,37.11
2023-02-08T13:35:29.257Z,37.73
2023-02-08T13:38:20.893Z,37.46
2023-02-08T13:41:22.757Z,38.14
2023-02-08T13:43:57.399Z,38.28
2023-02-08T13:46:35.253Z,38.09
2023-02-08T13:49:07.041Z,37.72
2023-02-08T13:51:53.181Z,37.64
2023-02-08T13:54:24.972Z,37.73
2023-02-08T13:56:57.439Z,38.00
2023-02-08T13:59:29.108Z,37.85
2023-02-08T14:02:12.972Z,40.15
2023-02-08T14:04:45.635Z,40.09
2023-02-08T14:07:32.920Z,41.19
2023-02-08T14:10:37.359Z,42.26
2023-02-08T14:13:31.135Z,42.15
2023-02-08T14:16:38.670Z,43.22
2023-02-08T14:19:16.174Z,44.18
2023-02-08T14:21:59.268Z,43.80
2023-02-08T14:24:43.729Z,44.27
2023-02-08T14:27:33.380Z,44.85
2023-02-08T14:30:07.780Z,46.09
2023-02-08T14:32:42.129Z,46.24
2023-02-08T14:35:13.822Z,46.64
2023-02-08T14:37:50.731Z,46.42
2023-02-08T14:40:32.927Z,47.71
2023-02-08T14:43:19.693Z,47.04
2023-02-08T14:45:55.786Z,47.64
2023-02-08T14:48:32.962Z,47.92
2023-02-08T14:51:10.708Z,48.62
2023-02-08T14:53:42.344Z,48.08
2023-02-08T14:56:29.744Z,48.45
2023-02-08T14:59:18.612Z,48.47
2023-02-08T15:01:54.359Z,48.29
2023-02-08T15:04:26.926Z,49.23
2023-02-08T15:07:07.566Z,48.67
2023-02-08T15:09:42.624Z,48.61
2023-02-08T15:12:34.317Z,48.71
2023-02-08T15:15:21.289Z,47.21
2023-02-08T15:17:54.886Z,45.33
2023-02-08T15:20:33.069Z,44.85
2023-02-08T15:23:23.892Z,44.53
2023-02-08T15:25:58.346Z,44.17
2023-02-08T15:28:34.058Z,44.01
2023-02-08T15:31:09.908Z,43.54
2023-02-08T15:33:44.719Z,43.65
2023-02-08T15:36:27.897Z,43.67
2023-02-08T15:39:03.772Z,43.49
2023-02-08T15:41:38.596Z,43.57
2023-02-08T15:44:18.582Z,43.64
2023-02-08T15:46:55.614Z,44.08
2023-02-08T15:49:50.707Z,44.05
2023-02-08T15:52:25.862Z,43.61
2023-02-08T15:54:57.699Z,43.97
2023-02-08T15:57:47.048Z,44.35
2023-02-08T16:00:28.606Z,44.33
2023-02-08T16:03:06.835Z,44.53
2023-02-08T16:05:41.567Z,44.37
2023-02-08T16:08:21.628Z,44.44
2023-02-08T16:10:57.501Z,44.79
2023-02-08T16:13:34.182Z,44.57
2023-02-08T16:16:44.883Z,44.87
2023-02-08T16:19:25.689Z,44.89
2023-02-08T16:22:25.906Z,45.25
2023-02-08T16:25:23.973Z,44.89
2023-02-08T16:27:55.748Z,45.28
2023-02-08T16:30:29.736Z,45.11
2023-02-08T16:33:08.793Z,45.25
2023-02-08T16:35:40.706Z,45.72
2023-02-08T16:38:21.443Z,45.20
2023-02-08T16:40:59.277Z,45.62
2023-02-08T16:43:32.765Z,45.96
2023-02-08T16:46:10.727Z,46.02
2023-02-08T16:48:50.419Z,46.16
2023-02-08T16:51:28.773Z,46.28
2023-02-08T16:54:11.398Z,46.42
2023-02-08T16:56:44.120Z,46.52
2023-02-08T16:59:16.843Z,46.77
2023-02-08T17:01:50.119Z,46.67
2023-02-08T17:04:22.225Z,47.00
2023-02-08T17:06:54.420Z,46.90
2023-02-08T17:09:26.118Z,47.40
2023-02-08T17:11:57.843Z,47.61
2023-02-08T17:14:29.512Z,47.85
2023-02-08T17:17:01.296Z,47.52
2023-02-08T17:19:32.980Z,47.93
2023-02-08T17:22:04.688Z,48.06
2023-02-08T17:24:38.873Z,48.38
2023-02-08T17:27:14.547Z,49.06
2023-02-08T17:29:46.300Z,48.61
2023-02-08T17:32:17.987Z,48.58
2023-02-08T17:34:49.648Z,48.33
2023-02-08T17:37:22.056Z,48.44
2023-02-08T17:39:53.735Z,48.55
2023-02-08T17:42:25.440Z,48.71
2023-02-08T17:44:57.114Z,48.70
2023-02-08T17:47:28.835Z,48.66
2023-02-08T17:50:02.409Z,48.56
2023-02-08T17:52:34.127Z,48.72
2023-02-08T17:55:07.346Z,48.61
2023-02-08T17:57:40.924Z,48.83
2023-02-08T18:00:18.810Z,48.55
2023-02-08T18:02:55.148Z,49.08
2023-02-08T18:05:28.504Z,49.01
2023-02-08T18:08:00.443Z,49.16
2023-02-08T18:10:32.134Z,48.95
2023-02-08T18:13:03.839Z,49.12
2023-02-08T18:15:35.510Z,49.06
2023-02-08T18:18:07.218Z,49.28
2023-02-08T18:20:43.885Z,49.52
2023-02-08T18:23:15.666Z,49.75
2023-02-08T18:25:48.658Z,49.63
2023-02-08T18:28:20.387Z,49.96
2023-02-08T18:30:52.132Z,49.81
2023-02-08T18:33:23.939Z,49.68
2023-02-08T18:35:55.609Z,49.84
2023-02-08T18:38:27.709Z,50.03
2023-02-08T18:40:59.398Z,49.80
2023-02-08T18:43:31.096Z,50.03
2023-02-08T18:46:05.580Z,50.10
2023-02-08T18:48:41.282Z,50.20
2023-02-08T18:51:14.626Z,50.10
2023-02-08T18:53:50.981Z,50.06
2023-02-08T18:56:25.238Z,50.20
2023-02-08T18:58:59.907Z,50.15
2023-02-08T19:01:31.677Z,50.42
2023-02-08T19:04:04.430Z,50.31
2023-02-08T19:06:37.548Z,50.62
2023-02-08T19:09:09.507Z,50.67
2023-02-08T19:11:41.510Z,50.63
2023-02-08T19:14:17.267Z,50.60
2023-02-08T19:16:49.475Z,51.05
2023-02-08T19:19:21.460Z,51.14
2023-02-08T19:21:56.160Z,51.15
2023-02-08T19:24:27.955Z,51.25
2023-02-08T19:27:00.095Z,51.10
2023-02-08T19:29:33.565Z,51.84
2023-02-08T19:32:07.654Z,51.55
2023-02-08T19:34:39.465Z,51.94
2023-02-08T19:37:11.162Z,52.00
2023-02-08T19:39:42.955Z,52.05
2023-02-08T19:42:14.641Z,53.22
2023-02-08T19:44:46.369Z,52.34
2023-02-08T19:47:18.541Z,51.89
2023-02-08T19:49:50.249Z,52.44
2023-02-08T19:52:24.567Z,52.47
2023-02-08T19:54:56.276Z,52.47
2023-02-08T19:57:27.945Z,52.48
2023-02-08T20:00:00.750Z,52.78
2023-02-08T20:02:43.796Z,52.75
2023-02-08T20:05:15.540Z,52.49
2023-02-08T20:07:47.225Z,52.77
2023-02-08T20:10:18.980Z,53.22
2023-02-08T20:12:50.665Z,53.70
2023-02-08T20:15:22.355Z,53.54
2023-02-08T20:17:54.025Z,53.17
2023-02-08T20:20:27.186Z,53.82
2023-02-08T20:22:58.957Z,53.73
2023-02-08T20:25:30.835Z,53.42
2023-02-08T20:28:02.628Z,53.31
2023-02-08T20:30:40.904Z,53.43
2023-02-08T20:33:14.768Z,53.89
2023-02-08T20:35:47.362Z,53.90
2023-02-08T20:38:19.084Z,53.58
2023-02-08T20:40:50.774Z,53.90
2023-02-08T20:43:22.405Z,53.99
2023-02-08T20:45:54.142Z,54.19
2023-02-08T20:48:26.026Z,54.35
2023-02-08T20:51:08.203Z,54.77
2023-02-08T20:53:41.303Z,54.73
2023-02-08T20:56:28.075Z,54.51
2023-02-08T20:59:08.647Z,54.73
2023-02-08T21:01:40.463Z,54.96
2023-02-08T21:04:13.253Z,54.90
2023-02-08T21:06:46.294Z,55.00
2023-02-08T21:09:19.680Z,55.09
2023-02-08T21:11:52.179Z,55.16
2023-02-08T21:14:24.211Z,55.45
2023-02-08T21:16:58.654Z,55.33
2023-02-08T21:19:30.737Z,55.32
2023-02-08T21:22:03.013Z,56.34
2023-02-08T21:24:34.699Z,55.78
2023-02-08T21:27:06.720Z,55.75
2023-02-08T21:29:38.761Z,55.57
2023-02-08T21:32:10.663Z,55.40
2023-02-08T21:34:42.409Z,55.18
2023-02-08T21:37:14.138Z,55.62
2023-02-08T21:39:47.318Z,55.44
2023-02-08T21:42:19.143Z,55.67
2023-02-08T21:44:50.824Z,55.87
2023-02-08T21:47:22.528Z,55.77
2023-02-08T21:50:12.782Z,55.90
2023-02-08T21:53:03.010Z,55.69
2023-02-08T21:55:34.783Z,55.79
2023-02-08T21:58:06.451Z,55.71
2023-02-08T22:00:38.160Z,55.44
2023-02-08T22:03:09.864Z,55.56
2023-02-08T22:06:00.010Z,55.83
2023-02-08T22:08:32.965Z,55.75
2023-02-08T22:11:05.142Z,55.37
2023-02-08T22:13:37.084Z,55.49
2023-02-08T22:16:09.407Z,55.93
2023-02-08T22:18:41.551Z,55.79
2023-02-08T22:21:16.210Z,55.90
2023-02-08T22:23:47.936Z,55.91
2023-02-08T22:26:19.619Z,55.89
2023-02-08T22:28:51.376Z,55.65
2023-02-08T22:31:23.198Z,55.74
2023-02-08T22:33:55.310Z,56.16
2023-02-08T22:36:28.092Z,56.25
2023-02-08T22:38:59.820Z,56.23
2023-02-08T22:41:31.573Z,56.16
2023-02-08T22:44:03.355Z,55.69
2023-02-08T22:46:35.038Z,56.12
2023-02-08T22:49:08.654Z,56.09
2023-02-08T22:51:40.489Z,56.36
2023-02-08T22:54:12.253Z,56.42
2023-02-08T22:56:43.928Z,56.64
2023-02-08T22:59:15.656Z,56.22
2023-02-08T23:01:47.428Z,56.63
2023-02-08T23:04:19.218Z,56.87
2023-02-08T23:06:51.322Z,56.80
2023-02-08T23:09:23.541Z,57.48
2023-02-08T23:11:55.347Z,56.87
2023-02-08T23:14:27.436Z,56.29
2023-02-08T23:16:59.107Z,56.55
2023-02-08T23:29:31.058Z,56.58
2023-02-08T23:32:04.202Z,56.31
2023-02-08T23:34:39.925Z,57.05
2023-02-08T23:37:37.019Z,57.86
2023-02-08T23:40:10.994Z,58.11
2023-02-08T23:42:42.707Z,58.52
2023-02-08T23:45:14.580Z,58.70
2023-02-08T23:47:46.290Z,59.59
2023-02-08T23:50:18.094Z,59.01
2023-02-08T23:52:49.861Z,59.35
2023-02-08T23:55:21.876Z,60.61
2023-02-08T23:57:53.534Z,60.52
